createdAt,value
2024-05-09T00:00:00.605Z,20.2
2024-05-09T00:01:00.630Z,20.1
2024-05-09T00:02:00.645Z,20.1
2024-05-09T00:03:00.644Z,20.1
2024-05-09T00:04:00.777Z,20.1
2024-05-09T00:05:00.811Z,20.1
2024-05-09T00:06:00.861Z,20.1
2024-05-09T00:07:00.570Z,20.1
2024-05-09T00:08:00.662Z,20.1
2024-05-09T00:09:00.609Z,20.1
2024-05-09T00:10:01.080Z,20.1
2024-05-09T00:11:00.720Z,20.1
2024-05-09T00:12:00.772Z,20.1
2024-05-09T00:13:00.990Z,20.1
2024-05-09T00:14:00.969Z,20.1
2024-05-09T00:15:00.580Z,20.1
2024-05-09T00:16:00.623Z,20.1
2024-05-09T00:17:00.642Z,20.1
2024-05-09T00:18:00.926Z,20.1
2024-05-09T00:19:00.656Z,20.1
2024-05-09T00:20:00.725Z,20.1
2024-05-09T00:21:03.005Z,20.1
2024-05-09T00:22:00.607Z,20.1
2024-05-09T00:23:00.653Z,20.1
2024-05-09T00:24:00.582Z,20.1
2024-05-09T00:25:00.578Z,20.1
2024-05-09T00:26:00.658Z,20.1
2024-05-09T00:27:00.572Z,20.1
2024-05-09T00:28:00.689Z,20.1
2024-05-09T00:29:00.626Z,20.1
2024-05-09T00:30:00.647Z,20.1
2024-05-09T00:31:01.357Z,20.1
2024-05-09T00:32:00.757Z,20.1
2024-05-09T00:33:00.872Z,20.1
2024-05-09T00:34:00.938Z,20.1
2024-05-09T00:35:00.709Z,20.1
2024-05-09T00:36:00.659Z,20.1
2024-05-09T00:37:00.600Z,20.1
2024-05-09T00:38:01.018Z,20.1
2024-05-09T00:39:00.613Z,20.1
2024-05-09T00:40:00.591Z,20.1
2024-05-09T00:41:00.657Z,20.1
2024-05-09T00:42:00.668Z,20.1
2024-05-09T00:43:00.645Z,20.1
2024-05-09T00:44:00.670Z,20.1
2024-05-09T00:45:00.620Z,20.1
2024-05-09T00:46:00.835Z,20.1
2024-05-09T00:47:00.608Z,20.1
2024-05-09T00:48:01.907Z,20.1
2024-05-09T00:49:00.780Z,20.1
2024-05-09T00:50:01.432Z,20.1
2024-05-09T00:51:01.012Z,20.1
2024-05-09T00:52:01.045Z,20.1
2024-05-09T00:53:00.852Z,20.1
2024-05-09T00:54:00.906Z,20.1
2024-05-09T00:55:00.663Z,20.1
2024-05-09T00:56:00.745Z,20.1
2024-05-09T00:57:01.803Z,20.1
2024-05-09T00:58:01.084Z,20.1
2024-05-09T00:59:01.415Z,20.1
2024-05-09T01:00:00.612Z,20.1
2024-05-09T01:01:01.568Z,20.1
2024-05-09T01:02:00.696Z,20.1
2024-05-09T01:03:00.786Z,20.1
2024-05-09T01:04:01.397Z,20.1
2024-05-09T01:05:00.983Z,20.1
2024-05-09T01:06:00.617Z,20.1
2024-05-09T01:07:00.605Z,20.1
2024-05-09T01:08:01.099Z,20.1
2024-05-09T01:09:00.617Z,20.1
2024-05-09T01:10:00.584Z,20.1
2024-05-09T01:11:00.812Z,20.0
2024-05-09T01:12:00.823Z,20.0
2024-05-09T01:13:00.637Z,20.0
2024-05-09T01:14:00.673Z,20.0
2024-05-09T01:15:00.675Z,20.0
2024-05-09T01:16:01.290Z,20.0
2024-05-09T01:17:00.668Z,20.0
2024-05-09T01:18:04.654Z,20.0
2024-05-09T01:19:02.810Z,20.0
2024-05-09T01:20:00.697Z,20.0
2024-05-09T01:21:00.633Z,20.0
2024-05-09T01:22:00.611Z,20.0
2024-05-09T01:23:05.084Z,20.0
2024-05-09T01:24:00.562Z,20.0
2024-05-09T01:25:00.579Z,20.0
2024-05-09T01:26:00.710Z,20.0
2024-05-09T01:27:00.610Z,20.0
2024-05-09T01:28:00.604Z,20.0
2024-05-09T01:29:00.712Z,20.0
2024-05-09T01:30:00.722Z,20.0
2024-05-09T01:31:00.565Z,20.0
2024-05-09T01:32:00.823Z,20.0
2024-05-09T01:33:01.046Z,19.9
2024-05-09T01:34:00.794Z,19.9
2024-05-09T01:35:00.627Z,19.9
2024-05-09T01:36:00.996Z,19.9
2024-05-09T01:37:00.588Z,19.9
2024-05-09T01:38:00.686Z,19.9
2024-05-09T01:39:00.615Z,19.9
2024-05-09T01:40:00.610Z,19.9
2024-05-09T01:41:00.596Z,19.9
2024-05-09T01:42:00.610Z,19.9
2024-05-09T01:43:00.569Z,19.9
2024-05-09T01:44:00.679Z,19.9
2024-05-09T01:45:00.708Z,19.9
2024-05-09T01:46:00.720Z,19.9
2024-05-09T01:47:00.678Z,19.9
2024-05-09T01:48:01.166Z,19.9
2024-05-09T01:49:00.696Z,19.9
2024-05-09T01:50:00.917Z,19.9
2024-05-09T01:51:00.709Z,19.8
2024-05-09T01:52:00.649Z,19.8
2024-05-09T01:53:00.668Z,19.8
2024-05-09T01:54:01.284Z,19.8
2024-05-09T01:55:04.507Z,19.7
2024-05-09T01:56:00.632Z,19.7
2024-05-09T01:57:00.578Z,19.7
2024-05-09T01:58:00.577Z,19.7
2024-05-09T01:59:00.679Z,19.6
2024-05-09T02:00:00.694Z,19.6
2024-05-09T02:01:00.689Z,19.6
2024-05-09T02:02:00.922Z,19.6
2024-05-09T02:03:00.937Z,19.6
2024-05-09T02:04:00.752Z,19.6
2024-05-09T02:05:00.793Z,19.6
2024-05-09T02:06:00.686Z,19.6
2024-05-09T02:07:00.631Z,19.6
2024-05-09T02:08:00.958Z,19.6
2024-05-09T02:09:00.591Z,19.6
2024-05-09T02:10:00.569Z,19.6
2024-05-09T02:11:00.852Z,19.6
2024-05-09T02:12:01.003Z,19.6
2024-05-09T02:13:00.560Z,19.6
2024-05-09T02:14:00.658Z,19.6
2024-05-09T02:15:00.602Z,19.6
2024-05-09T02:16:00.563Z,19.6
2024-05-09T02:17:00.630Z,19.6
2024-05-09T02:18:01.065Z,19.6
2024-05-09T02:19:00.616Z,19.6
2024-05-09T02:20:00.692Z,19.6
2024-05-09T02:21:00.860Z,19.6
2024-05-09T02:22:00.716Z,19.6
2024-05-09T02:23:00.696Z,19.6
2024-05-09T02:24:00.550Z,19.6
2024-05-09T02:25:00.567Z,19.6
2024-05-09T02:26:00.726Z,19.6
2024-05-09T02:27:00.614Z,19.6
2024-05-09T02:28:00.803Z,19.6
2024-05-09T02:29:00.632Z,19.6
2024-05-09T02:30:00.688Z,19.6
2024-05-09T02:31:00.608Z,19.6
2024-05-09T02:32:00.719Z,19.6
2024-05-09T02:33:00.916Z,19.6
2024-05-09T02:34:00.869Z,19.6
2024-05-09T02:35:00.636Z,19.6
2024-05-09T02:36:00.605Z,19.6
2024-05-09T02:37:00.620Z,19.5
2024-05-09T02:38:00.865Z,19.5
2024-05-09T02:39:00.593Z,19.5
2024-05-09T02:40:00.604Z,19.5
2024-05-09T02:41:01.050Z,19.5
2024-05-09T02:42:00.602Z,19.5
2024-05-09T02:43:00.612Z,19.5
2024-05-09T02:44:00.613Z,19.5
2024-05-09T02:45:00.583Z,19.5
2024-05-09T02:46:00.720Z,19.5
2024-05-09T02:47:00.584Z,19.5
2024-05-09T02:48:01.718Z,19.5
2024-05-09T02:49:00.745Z,19.5
2024-05-09T02:50:00.639Z,19.5
2024-05-09T02:51:00.674Z,19.4
2024-05-09T02:52:00.573Z,19.4
2024-05-09T02:53:00.692Z,19.4
2024-05-09T02:54:00.592Z,19.4
2024-05-09T02:55:00.589Z,19.4
2024-05-09T02:56:00.724Z,19.4
2024-05-09T02:57:00.580Z,19.4
2024-05-09T02:58:00.709Z,19.4
2024-05-09T02:59:00.713Z,19.4
2024-05-09T03:00:00.644Z,19.4
2024-05-09T03:01:00.671Z,19.4
2024-05-09T03:02:00.745Z,19.4
2024-05-09T03:03:01.033Z,19.4
2024-05-09T03:04:00.690Z,19.4
2024-05-09T03:05:00.682Z,19.4
2024-05-09T03:06:01.265Z,19.4
2024-05-09T03:07:00.570Z,19.3
2024-05-09T03:08:00.692Z,19.3
2024-05-09T03:09:00.588Z,19.3
2024-05-09T03:10:00.652Z,19.3
2024-05-09T03:11:00.628Z,19.3
2024-05-09T03:12:00.745Z,19.3
2024-05-09T03:13:04.387Z,19.3
2024-05-09T03:14:01.007Z,19.3
2024-05-09T03:15:00.577Z,19.3
2024-05-09T03:16:00.566Z,19.3
2024-05-09T03:17:00.595Z,19.2
2024-05-09T03:18:01.075Z,19.2
2024-05-09T03:19:00.641Z,19.2
2024-05-09T03:20:01.565Z,19.2
2024-05-09T03:21:00.981Z,19.2
2024-05-09T03:22:00.593Z,19.2
2024-05-09T03:23:00.758Z,19.2
2024-05-09T03:24:00.580Z,19.2
2024-05-09T03:25:00.629Z,19.2
2024-05-09T03:26:00.644Z,19.2
2024-05-09T03:27:00.585Z,19.2
2024-05-09T03:28:00.592Z,19.2
2024-05-09T03:29:00.635Z,19.2
2024-05-09T03:30:00.607Z,19.2
2024-05-09T03:31:00.561Z,19.2
2024-05-09T03:32:00.726Z,19.2
2024-05-09T03:33:00.869Z,19.2
2024-05-09T03:34:00.755Z,19.2
2024-05-09T03:35:00.598Z,19.2
2024-05-09T03:36:01.441Z,19.2
2024-05-09T03:37:00.584Z,19.2
2024-05-09T03:38:00.622Z,19.2
2024-05-09T03:39:00.597Z,19.2
2024-05-09T03:40:00.723Z,19.2
2024-05-09T03:41:00.709Z,19.2
2024-05-09T03:42:00.590Z,19.2
2024-05-09T03:43:00.586Z,19.2
2024-05-09T03:44:00.657Z,19.2
2024-05-09T03:45:00.597Z,19.2
2024-05-09T03:46:00.577Z,19.2
2024-05-09T03:47:00.687Z,19.1
2024-05-09T03:48:00.843Z,19.1
2024-05-09T03:49:00.792Z,19.1
2024-05-09T03:50:00.722Z,19.1
2024-05-09T03:51:00.679Z,19.1
2024-05-09T03:52:00.604Z,19.1
2024-05-09T03:53:01.211Z,19.1
2024-05-09T03:54:00.581Z,19.1
2024-05-09T03:55:00.569Z,19.1
2024-05-09T03:56:00.676Z,19.1
2024-05-09T03:57:00.813Z,19.1
2024-05-09T03:58:00.637Z,19.1
2024-05-09T03:59:00.655Z,19.1
2024-05-09T04:00:00.582Z,19.1
2024-05-09T04:01:00.647Z,19.1
2024-05-09T04:02:00.726Z,19.1
2024-05-09T04:03:00.846Z,19.1
2024-05-09T04:04:00.655Z,19.1
2024-05-09T04:05:00.648Z,19.0
2024-05-09T04:06:00.605Z,19.0
2024-05-09T04:07:00.583Z,19.0
2024-05-09T04:08:00.778Z,19.0
2024-05-09T04:09:00.595Z,19.0
2024-05-09T04:10:00.645Z,19.0
2024-05-09T04:11:00.749Z,19.1
2024-05-09T04:12:00.697Z,19.1
2024-05-09T04:13:01.055Z,19.1
2024-05-09T04:14:00.659Z,19.1
2024-05-09T04:15:00.691Z,19.1
2024-05-09T04:16:00.559Z,19.1
2024-05-09T04:17:00.619Z,19.0
2024-05-09T04:18:01.698Z,19.0
2024-05-09T04:19:00.668Z,19.1
2024-05-09T04:20:00.807Z,19.1
2024-05-09T04:21:02.067Z,19.1
2024-05-09T04:22:00.610Z,19.1
2024-05-09T04:23:00.662Z,19.1
2024-05-09T04:24:00.579Z,19.1
2024-05-09T04:25:00.613Z,19.1
2024-05-09T04:26:00.763Z,19.1
2024-05-09T04:27:00.684Z,19.1
2024-05-09T04:28:00.617Z,19.1
2024-05-09T04:29:00.632Z,19.1
2024-05-09T04:30:00.646Z,19.1
2024-05-09T04:31:00.582Z,19.1
2024-05-09T04:32:00.740Z,19.1
2024-05-09T04:33:01.073Z,19.1
2024-05-09T04:34:00.749Z,19.1
2024-05-09T04:35:00.633Z,19.1
2024-05-09T04:36:00.636Z,19.1
2024-05-09T04:37:01.474Z,19.1
2024-05-09T04:38:00.860Z,19.1
2024-05-09T04:39:00.560Z,19.0
2024-05-09T04:40:00.576Z,19.0
2024-05-09T04:41:00.623Z,19.0
2024-05-09T04:42:00.566Z,19.0
2024-05-09T04:43:00.585Z,19.1
2024-05-09T04:44:00.627Z,19.1
2024-05-09T04:45:00.565Z,19.1
2024-05-09T04:46:00.598Z,19.1
2024-05-09T04:47:00.626Z,19.1
2024-05-09T04:48:01.508Z,19.1
2024-05-09T04:49:00.887Z,19.1
2024-05-09T04:50:00.655Z,19.1
2024-05-09T04:51:00.693Z,19.0
2024-05-09T04:52:00.571Z,19.0
2024-05-09T04:53:00.623Z,19.0
2024-05-09T04:54:00.672Z,19.0
2024-05-09T04:55:00.600Z,19.0
2024-05-09T04:56:00.724Z,19.0
2024-05-09T04:57:00.587Z,19.0
2024-05-09T04:58:00.622Z,19.0
2024-05-09T04:59:00.699Z,19.0
2024-05-09T05:00:00.627Z,19.0
2024-05-09T05:01:00.703Z,19.0
2024-05-09T05:02:00.804Z,19.0
2024-05-09T05:03:00.751Z,19.0
2024-05-09T05:04:00.841Z,19.0
2024-05-09T05:05:00.697Z,19.0
2024-05-09T05:06:00.673Z,19.0
2024-05-09T05:07:02.871Z,19.0
2024-05-09T05:08:00.634Z,19.0
2024-05-09T05:09:00.609Z,19.1
2024-05-09T05:10:00.627Z,19.1
2024-05-09T05:11:00.805Z,19.1
2024-05-09T05:12:01.019Z,19.1
2024-05-09T05:13:00.595Z,19.1
2024-05-09T05:14:00.714Z,19.1
2024-05-09T05:15:00.609Z,19.1
2024-05-09T05:16:00.587Z,19.1
2024-05-09T05:17:00.723Z,19.1
2024-05-09T05:18:00.979Z,19.1
2024-05-09T05:19:00.715Z,19.2
2024-05-09T05:20:00.888Z,19.2
2024-05-09T05:21:00.850Z,19.2
2024-05-09T05:22:00.631Z,19.2
2024-05-09T05:23:01.035Z,19.3
2024-05-09T05:24:00.630Z,19.3
2024-05-09T05:25:00.634Z,19.3
2024-05-09T05:26:00.642Z,19.3
2024-05-09T05:27:00.597Z,19.3
2024-05-09T05:28:00.652Z,19.3
2024-05-09T05:29:00.736Z,19.3
2024-05-09T05:30:00.637Z,19.3
2024-05-09T05:31:00.592Z,19.4
2024-05-09T05:32:00.815Z,19.4
2024-05-09T05:33:00.967Z,19.4
2024-05-09T05:34:00.671Z,19.4
2024-05-09T05:35:00.795Z,19.4
2024-05-09T05:36:00.573Z,19.4
2024-05-09T05:37:00.596Z,19.4
2024-05-09T05:38:00.871Z,19.4
2024-05-09T05:39:00.616Z,19.5
2024-05-09T05:40:00.600Z,19.5
2024-05-09T05:41:02.960Z,19.5
2024-05-09T05:42:00.601Z,19.5
2024-05-09T05:43:00.603Z,19.5
2024-05-09T05:44:00.670Z,19.5
2024-05-09T05:45:00.633Z,19.5
2024-05-09T05:46:00.597Z,19.5
2024-05-09T05:47:00.578Z,19.5
2024-05-09T05:48:02.181Z,19.5
2024-05-09T05:49:00.690Z,19.6
2024-05-09T05:50:00.856Z,19.6
2024-05-09T05:53:00.701Z,19.6
2024-05-09T05:54:00.562Z,19.6
2024-05-09T05:55:00.572Z,19.6
2024-05-09T05:56:00.702Z,19.6
2024-05-09T05:57:00.589Z,19.6
2024-05-09T05:58:00.873Z,19.6
2024-05-09T05:59:00.670Z,19.6
2024-05-09T06:00:00.614Z,19.6
2024-05-09T06:01:00.726Z,19.6
2024-05-09T06:02:00.629Z,19.6
2024-05-09T06:03:00.888Z,19.6
2024-05-09T06:04:00.713Z,19.6
2024-05-09T06:05:01.086Z,19.6
2024-05-09T06:06:01.946Z,19.6
2024-05-09T06:07:00.679Z,19.6
2024-05-09T06:08:01.099Z,19.6
2024-05-09T06:09:00.577Z,19.7
2024-05-09T06:10:00.643Z,19.7
2024-05-09T06:11:01.483Z,19.7
2024-05-09T06:12:00.816Z,19.7
2024-05-09T06:13:00.575Z,19.7
2024-05-09T06:14:00.711Z,19.7
2024-05-09T06:15:00.585Z,19.7
2024-05-09T06:16:00.599Z,19.7
2024-05-09T06:17:00.676Z,19.8
2024-05-09T06:18:01.071Z,19.8
2024-05-09T06:19:00.752Z,19.8
2024-05-09T06:20:00.666Z,19.8
2024-05-09T06:21:01.088Z,19.8
2024-05-09T06:22:00.576Z,19.8
2024-05-09T06:23:00.761Z,19.8
2024-05-09T06:24:02.597Z,19.8
2024-05-09T06:25:00.589Z,19.8
2024-05-09T06:26:00.699Z,19.8
2024-05-09T06:27:00.581Z,19.8
2024-05-09T06:28:00.721Z,19.8
2024-05-09T06:29:00.630Z,19.8
2024-05-09T06:30:00.621Z,19.8
2024-05-09T06:31:01.637Z,19.9
2024-05-09T06:32:00.872Z,19.9
2024-05-09T06:33:00.781Z,19.9
2024-05-09T06:34:00.819Z,19.9
2024-05-09T06:35:00.654Z,19.9
2024-05-09T06:36:00.653Z,19.9
2024-05-09T06:37:00.656Z,20.0
2024-05-09T06:38:00.721Z,20.0
2024-05-09T06:39:00.570Z,20.0
2024-05-09T06:40:00.591Z,20.0
2024-05-09T06:41:00.681Z,20.1
2024-05-09T06:42:00.626Z,20.1
2024-05-09T06:43:00.627Z,20.1
2024-05-09T06:44:00.724Z,20.1
2024-05-09T06:45:00.671Z,20.1
2024-05-09T06:46:00.600Z,20.1
2024-05-09T06:47:00.728Z,20.1
2024-05-09T06:48:01.061Z,20.1
2024-05-09T06:49:00.835Z,20.2
2024-05-09T06:50:00.728Z,20.2
2024-05-09T06:51:00.657Z,20.2
2024-05-09T06:52:00.580Z,20.2
2024-05-09T06:53:00.754Z,20.2
2024-05-09T06:54:00.661Z,20.2
2024-05-09T06:55:00.571Z,20.2
2024-05-09T06:56:00.628Z,20.2
2024-05-09T06:57:00.603Z,20.2
2024-05-09T06:58:00.775Z,20.2
2024-05-09T06:59:01.201Z,20.2
2024-05-09T07:00:00.721Z,20.2
2024-05-09T07:01:00.735Z,20.3
2024-05-09T07:02:01.296Z,20.3
2024-05-09T07:03:05.597Z,20.3
2024-05-09T07:04:00.678Z,20.3
2024-05-09T07:05:00.870Z,20.3
2024-05-09T07:06:00.679Z,20.3
2024-05-09T07:07:00.597Z,20.3
2024-05-09T07:08:00.707Z,20.3
2024-05-09T07:09:00.626Z,20.4
2024-05-09T07:10:00.602Z,20.4
2024-05-09T07:11:00.687Z,20.4
2024-05-09T07:12:00.726Z,20.4
2024-05-09T07:13:00.602Z,20.4
2024-05-09T07:14:00.624Z,20.4
2024-05-09T07:20:02.496Z,20.5
2024-05-09T07:21:01.315Z,20.5
2024-05-09T07:22:00.348Z,20.5
2024-05-09T07:23:01.239Z,20.5
2024-05-09T07:24:00.377Z,20.5
2024-05-09T07:25:00.360Z,20.6
2024-05-09T07:26:00.416Z,20.6
2024-05-09T07:27:00.336Z,20.6
2024-05-09T07:28:00.341Z,20.6
2024-05-09T07:29:00.348Z,20.7
2024-05-09T07:30:00.339Z,20.7
2024-05-09T07:31:00.339Z,20.7
2024-05-09T07:32:00.367Z,20.7
2024-05-09T07:33:00.744Z,20.8
2024-05-09T07:34:00.684Z,20.8
2024-05-09T07:35:00.369Z,20.8
2024-05-09T07:36:00.358Z,20.8
2024-05-09T07:37:00.381Z,20.8
2024-05-09T07:38:00.475Z,20.8
2024-05-09T07:39:00.333Z,20.8
2024-05-09T07:40:00.343Z,20.8
2024-05-09T07:41:01.891Z,20.9
2024-05-09T07:42:00.345Z,20.9
2024-05-09T07:43:02.031Z,20.9
2024-05-09T07:44:00.394Z,20.9
2024-05-09T07:45:17.759Z,20.9
2024-05-09T07:50:35.930Z,20.9
2024-05-09T07:51:47.485Z,20.9
2024-05-09T07:53:00.932Z,20.9
2024-05-09T07:53:26.821Z,20.9
2024-05-09T07:53:35.996Z,21.0
2024-05-09T07:54:01.513Z,21.0
2024-05-09T07:55:00.796Z,21.0
2024-05-09T07:56:00.608Z,21.0
2024-05-09T07:57:00.478Z,21.1
2024-05-09T07:58:00.341Z,21.1
2024-05-09T07:59:00.368Z,21.2
2024-05-09T08:00:00.338Z,21.2
2024-05-09T08:01:00.540Z,21.2
2024-05-09T08:02:00.593Z,21.2
2024-05-09T08:03:00.403Z,21.2
2024-05-09T08:04:00.507Z,21.2
2024-05-09T08:05:00.524Z,21.2
2024-05-09T08:06:00.348Z,21.2
2024-05-09T08:07:00.388Z,21.3
2024-05-09T08:08:00.343Z,21.3
2024-05-09T08:09:05.284Z,21.3
2024-05-09T08:11:00.915Z,21.4
2024-05-09T08:12:00.335Z,21.4
2024-05-09T08:13:00.348Z,21.4
2024-05-09T08:14:00.380Z,21.4
2024-05-09T08:15:00.332Z,21.4
2024-05-09T08:16:00.691Z,21.4
2024-05-09T08:17:00.383Z,21.4
2024-05-09T08:18:00.745Z,21.4
2024-05-09T08:19:00.665Z,21.4
2024-05-09T08:20:01.998Z,21.4
2024-05-09T08:21:00.886Z,21.4
2024-05-09T08:22:00.361Z,21.4
2024-05-09T08:23:00.354Z,21.5
2024-05-09T08:24:00.330Z,21.5
2024-05-09T08:25:00.514Z,21.5
2024-05-09T08:26:00.314Z,21.5
2024-05-09T08:27:00.572Z,21.5
2024-05-09T08:28:02.386Z,21.5
2024-05-09T08:29:00.401Z,21.6
2024-05-09T08:33:00.438Z,21.6
2024-05-09T08:34:00.494Z,21.7
2024-05-09T08:35:00.434Z,21.7
2024-05-09T08:36:00.343Z,21.7
2024-05-09T08:37:06.104Z,21.7
2024-05-09T08:38:02.448Z,21.7
2024-05-09T08:39:00.462Z,21.7
2024-05-09T08:40:00.500Z,21.8
2024-05-09T08:41:02.460Z,21.8
2024-05-09T08:43:01.459Z,21.8
2024-05-09T08:44:01.286Z,21.8
2024-05-09T08:45:00.568Z,21.8
2024-05-09T08:46:00.932Z,21.8
2024-05-09T08:47:01.377Z,21.8
2024-05-09T08:48:01.232Z,21.8
2024-05-09T08:49:02.015Z,21.9
2024-05-09T08:50:01.802Z,21.9
2024-05-09T08:51:00.364Z,21.9
2024-05-09T08:52:00.418Z,21.9
2024-05-09T08:53:00.387Z,21.9
2024-05-09T08:54:00.415Z,21.9
2024-05-09T08:55:00.416Z,22.0
2024-05-09T08:56:00.854Z,22.0
2024-05-09T08:57:01.190Z,22.0
2024-05-09T09:00:03.485Z,22.0
2024-05-09T09:03:01.329Z,22.0
2024-05-09T09:04:01.400Z,22.1
2024-05-09T09:05:04.798Z,22.1
2024-05-09T09:06:01.235Z,22.1
2024-05-09T09:14:00.373Z,22.2
2024-05-09T09:15:00.385Z,22.3
2024-05-09T09:16:00.569Z,22.3
2024-05-09T09:17:10.333Z,22.3
2024-05-09T09:18:00.967Z,22.3
2024-05-09T09:23:00.348Z,22.4
2024-05-09T09:24:00.360Z,22.4
2024-05-09T09:25:00.402Z,22.4
2024-05-09T09:26:00.500Z,22.5
2024-05-09T09:27:00.413Z,22.5
2024-05-09T09:28:00.555Z,22.5
2024-05-09T09:29:00.374Z,22.5
2024-05-09T09:30:00.361Z,22.5
2024-05-09T09:31:00.955Z,22.5
2024-05-09T09:32:00.909Z,22.6
2024-05-09T09:33:00.509Z,22.6
2024-05-09T09:34:04.683Z,22.6
2024-05-09T09:35:00.423Z,22.6
2024-05-09T09:36:01.521Z,22.6
2024-05-09T09:37:03.569Z,22.6
2024-05-09T09:38:01.101Z,22.7
2024-05-09T09:39:01.207Z,22.7
2024-05-09T09:40:02.006Z,22.7
2024-05-09T09:41:03.751Z,22.7
2024-05-09T09:42:01.327Z,22.8
2024-05-09T09:43:00.622Z,22.8
2024-05-09T09:44:01.542Z,22.8
2024-05-09T09:49:00.630Z,22.9
2024-05-09T09:50:00.741Z,22.9
2024-05-09T09:51:00.681Z,22.9
2024-05-09T09:52:00.572Z,22.9
2024-05-09T09:53:00.495Z,22.9
2024-05-09T09:54:02.512Z,23.0
2024-05-09T09:55:00.791Z,23.0
2024-05-09T09:56:00.695Z,23.0
2024-05-09T09:57:03.224Z,23.0
2024-05-09T09:58:02.580Z,23.1
2024-05-09T09:59:02.953Z,23.1
2024-05-09T10:00:00.496Z,23.1
2024-05-09T10:01:02.562Z,23.1
2024-05-09T10:02:00.504Z,23.1
2024-05-09T10:03:01.469Z,23.1
2024-05-09T10:04:01.081Z,23.2
2024-05-09T10:05:00.646Z,23.2
2024-05-09T10:06:01.162Z,23.2
2024-05-09T10:07:03.264Z,23.2
2024-05-09T10:08:02.989Z,23.2
2024-05-09T10:09:00.409Z,23.2
2024-05-09T10:10:00.545Z,23.3
2024-05-09T10:11:02.207Z,23.3
2024-05-09T10:12:09.590Z,23.3
2024-05-09T10:14:00.692Z,23.4
2024-05-09T10:15:06.011Z,23.4
2024-05-09T10:16:06.168Z,23.5
2024-05-09T10:17:02.971Z,23.5
2024-05-09T10:18:03.279Z,23.5
2024-05-09T10:19:00.939Z,23.5
2024-05-09T10:20:05.454Z,23.5
2024-05-09T10:21:00.992Z,23.5
2024-05-09T10:22:01.346Z,23.6
2024-05-09T10:23:00.472Z,23.6
2024-05-09T10:24:02.144Z,23.6
2024-05-09T10:25:05.082Z,23.6
2024-05-09T10:26:01.403Z,23.7
2024-05-09T10:27:02.662Z,23.7
2024-05-09T10:28:00.418Z,23.7
2024-05-09T10:29:20.495Z,23.8
2024-05-09T10:30:01.303Z,23.8
2024-05-09T10:31:06.353Z,23.8
2024-05-09T10:32:00.761Z,23.8
2024-05-09T10:33:00.436Z,23.8
2024-05-09T10:34:00.699Z,23.8
2024-05-09T10:36:01.979Z,23.9
2024-05-09T10:37:02.041Z,23.9
2024-05-09T10:38:04.404Z,23.9
2024-05-09T10:39:00.554Z,23.9
2024-05-09T10:40:00.693Z,23.9
2024-05-09T10:41:01.114Z,23.9
2024-05-09T10:42:00.468Z,24.0
2024-05-09T10:43:04.701Z,24.0
2024-05-09T10:44:00.407Z,24.1
2024-05-09T10:45:00.590Z,24.1
2024-05-09T10:46:00.414Z,24.1
2024-05-09T10:47:00.439Z,24.1
2024-05-09T10:48:00.628Z,24.2
2024-05-09T10:49:03.361Z,24.2
2024-05-09T10:50:00.620Z,24.1
2024-05-09T10:51:00.421Z,24.1
2024-05-09T10:52:02.318Z,24.0
2024-05-09T10:53:01.188Z,24.0
2024-05-09T10:54:00.396Z,24.0
2024-05-09T10:55:01.685Z,24.0
2024-05-09T10:56:00.676Z,24.0
2024-05-09T10:57:00.372Z,24.0
2024-05-09T10:58:00.519Z,24.0
2024-05-09T10:59:03.054Z,24.0
2024-05-09T11:00:00.385Z,24.0
2024-05-09T11:01:03.391Z,24.0
2024-05-09T11:02:03.168Z,24.0
2024-05-09T11:03:00.506Z,24.0
2024-05-09T11:04:00.657Z,24.1
2024-05-09T11:05:00.473Z,24.1
2024-05-09T11:06:00.363Z,24.1
2024-05-09T11:07:05.425Z,24.1
2024-05-09T11:08:00.488Z,24.3
2024-05-09T11:09:00.538Z,24.3
2024-05-09T11:10:00.567Z,24.3
2024-05-09T11:11:01.517Z,24.3
2024-05-09T11:12:01.223Z,24.4
2024-05-09T11:13:00.536Z,24.4
2024-05-09T11:14:10.142Z,24.4
2024-05-09T11:15:00.393Z,24.4
2024-05-09T11:16:01.425Z,24.4
2024-05-09T11:17:01.044Z,24.4
2024-05-09T11:18:00.518Z,24.4
2024-05-09T11:19:00.642Z,24.4
2024-05-09T11:20:00.590Z,24.6
2024-05-09T11:21:00.715Z,24.6
2024-05-09T11:22:00.426Z,24.7
2024-05-09T11:23:04.302Z,24.7
2024-05-09T11:24:00.403Z,24.7
2024-05-09T11:25:00.559Z,24.7
2024-05-09T11:26:00.649Z,24.8
2024-05-09T11:27:01.603Z,24.8
2024-05-09T11:28:00.838Z,24.8
2024-05-09T11:29:00.385Z,24.8
2024-05-09T11:30:00.400Z,24.8
2024-05-09T11:31:03.718Z,24.8
2024-05-09T11:32:00.419Z,24.8
2024-05-09T11:33:00.605Z,24.8
2024-05-09T11:34:00.387Z,24.8
2024-05-09T11:35:00.357Z,24.8
2024-05-09T11:36:00.386Z,24.8
2024-05-09T11:37:00.477Z,24.8
2024-05-09T11:38:00.383Z,24.8
2024-05-09T11:39:00.376Z,24.8
2024-05-09T11:40:00.461Z,24.8
2024-05-09T11:41:01.402Z,24.8
2024-05-09T11:42:00.411Z,24.8
2024-05-09T11:43:00.421Z,24.8
2024-05-09T11:44:00.538Z,24.9
2024-05-09T11:45:00.390Z,24.9
2024-05-09T11:46:01.238Z,25.0
2024-05-09T11:47:01.203Z,25.0
2024-05-09T11:48:00.660Z,25.0
2024-05-09T11:49:00.639Z,25.0
2024-05-09T11:50:00.548Z,25.0
2024-05-09T11:51:00.370Z,25.0
2024-05-09T11:52:00.580Z,25.0
2024-05-09T11:53:00.394Z,25.0
2024-05-09T11:54:00.472Z,25.1
2024-05-09T11:55:00.416Z,25.1
2024-05-09T11:56:00.385Z,25.1
2024-05-09T11:57:00.422Z,25.1
2024-05-09T11:58:01.325Z,25.2
2024-05-09T11:59:00.410Z,25.2
2024-05-09T12:00:00.388Z,25.3
2024-05-09T12:01:00.534Z,25.3
2024-05-09T12:02:00.469Z,25.4
2024-05-09T12:03:00.421Z,25.4
2024-05-09T12:04:00.780Z,25.5
2024-05-09T12:05:00.527Z,25.5
2024-05-09T12:06:00.657Z,25.5
2024-05-09T12:07:00.524Z,25.5
2024-05-09T12:08:00.430Z,25.6
2024-05-09T12:09:00.386Z,25.6
2024-05-09T12:10:00.589Z,25.6
2024-05-09T12:11:00.589Z,25.6
2024-05-09T12:12:00.395Z,25.7
2024-05-09T12:13:00.478Z,25.7
2024-05-09T12:14:00.447Z,25.8
2024-05-09T12:15:00.424Z,25.8
2024-05-09T12:16:00.477Z,25.9
2024-05-09T12:17:00.448Z,25.9
2024-05-09T12:18:03.506Z,25.9
2024-05-09T12:19:00.708Z,25.9
2024-05-09T12:20:00.406Z,25.9
2024-05-09T12:21:00.775Z,25.9
2024-05-09T12:22:00.440Z,25.9
2024-05-09T12:23:00.376Z,25.9
2024-05-09T12:24:00.373Z,25.9
2024-05-09T12:25:00.481Z,25.9
2024-05-09T12:26:00.539Z,26.0
2024-05-09T12:27:00.387Z,26.0
2024-05-09T12:28:00.801Z,26.0
2024-05-09T12:29:00.379Z,26.0
2024-05-09T12:30:00.404Z,26.1
2024-05-09T12:31:00.433Z,26.1
2024-05-09T12:32:00.390Z,26.1
2024-05-09T12:33:00.508Z,26.1
2024-05-09T12:34:00.491Z,26.1
2024-05-09T12:35:00.407Z,26.1
2024-05-09T12:36:00.527Z,26.2
2024-05-09T12:37:00.443Z,26.2
2024-05-09T12:38:00.544Z,26.1
2024-05-09T12:39:00.958Z,26.1
2024-05-09T12:40:00.390Z,26.1
2024-05-09T12:41:01.295Z,26.1
2024-05-09T12:42:00.393Z,26.1
2024-05-09T12:43:00.470Z,26.1
2024-05-09T12:44:00.766Z,26.2
2024-05-09T12:45:00.416Z,26.2
2024-05-09T12:46:00.533Z,26.2
2024-05-09T12:47:00.413Z,26.2
2024-05-09T12:48:00.608Z,26.3
2024-05-09T12:50:00.671Z,26.3
2024-05-09T12:51:00.389Z,26.3
2024-05-09T12:52:00.387Z,26.3
2024-05-09T12:53:00.724Z,26.3
2024-05-09T12:54:00.391Z,26.3
2024-05-09T12:55:00.509Z,26.3
2024-05-09T12:56:02.514Z,26.4
2024-05-09T12:57:00.457Z,26.4
2024-05-09T12:58:00.536Z,26.4
2024-05-09T12:59:00.372Z,26.4
2024-05-09T13:00:00.427Z,26.6
2024-05-09T13:01:00.718Z,26.6
2024-05-09T13:02:01.213Z,26.6
2024-05-09T13:03:01.135Z,26.6
2024-05-09T13:04:00.598Z,26.7
2024-05-09T13:05:00.398Z,26.7
2024-05-09T13:06:00.437Z,26.7
2024-05-09T13:07:00.448Z,26.7
2024-05-09T13:08:00.722Z,26.7
2024-05-09T13:09:00.462Z,26.7
2024-05-09T13:10:00.713Z,26.7
2024-05-09T13:11:00.450Z,26.7
2024-05-09T13:12:00.455Z,26.7
2024-05-09T13:13:01.370Z,26.7
2024-05-09T13:14:00.361Z,26.7
2024-05-09T13:15:00.386Z,26.7
2024-05-09T13:16:00.416Z,26.7
2024-05-09T13:17:00.482Z,26.7
2024-05-09T13:18:02.940Z,26.7
2024-05-09T13:19:00.374Z,26.7
2024-05-09T13:20:00.379Z,26.8
2024-05-09T13:21:00.755Z,26.8
2024-05-09T13:22:00.517Z,26.8
2024-05-09T13:23:00.906Z,26.8
2024-05-09T13:24:00.606Z,26.9
2024-05-09T13:25:00.415Z,26.9
2024-05-09T13:26:00.387Z,26.9
2024-05-09T13:27:00.435Z,26.9
2024-05-09T13:28:00.447Z,27.0
2024-05-09T13:29:00.363Z,27.0
2024-05-09T13:30:00.405Z,27.1
2024-05-09T13:31:00.410Z,27.1
2024-05-09T13:32:00.534Z,27.1
2024-05-09T13:33:00.491Z,27.1
2024-05-09T13:34:00.500Z,27.2
2024-05-09T13:35:00.375Z,27.2
2024-05-09T13:36:00.414Z,27.2
2024-05-09T13:37:00.462Z,27.2
2024-05-09T13:38:00.645Z,27.3
2024-05-09T13:39:00.434Z,27.3
2024-05-09T13:40:00.649Z,27.2
2024-05-09T13:41:00.462Z,27.2
2024-05-09T13:42:00.396Z,27.2
2024-05-09T13:43:00.484Z,27.2
2024-05-09T13:44:00.374Z,27.2
2024-05-09T13:45:00.382Z,27.2
2024-05-09T13:46:00.538Z,27.2
2024-05-09T13:47:00.758Z,27.2
2024-05-09T13:48:00.726Z,27.2
2024-05-09T13:49:01.711Z,27.2
2024-05-09T13:50:00.592Z,27.2
2024-05-09T13:51:00.437Z,27.2
2024-05-09T13:52:00.658Z,27.2
2024-05-09T13:53:00.367Z,27.2
2024-05-09T13:54:00.381Z,27.2
2024-05-09T13:55:00.477Z,27.2